sensor_id;sensor_type;location;lat;lon;timestamp;temperature;humidity
41678;DHT22;27364;49.026;8.712;2023-02-04T00:00:51;7.60;99.90
41678;DHT22;27364;49.026;8.712;2023-02-04T00:03:16;7.70;99.90
41678;DHT22;27364;49.026;8.712;2023-02-04T00:05:42;7.70;99.90
41678;DHT22;27364;49.026;8.712;2023-02-04T00:08:08;7.70;99.90
41678;DHT22;27364;49.026;8.712;2023-02-04T00:10:35;7.70;99.90
41678;DHT22;27364;49.026;8.712;2023-02-04T00:13:01;7.70;99.90
41678;DHT22;27364;49.026;8.712;2023-02-04T00:15:27;7.70;99.90
41678;DHT22;27364;49.026;8.712;2023-02-04T00:17:53;7.70;99.90
41678;DHT22;27364;49.026;8.712;2023-02-04T00:20:18;7.60;99.90
41678;DHT22;27364;49.026;8.712;2023-02-04T00:22:44;7.60;99.90
41678;DHT22;27364;49.026;8.712;2023-02-04T00:25:10;7.60;99.90
41678;DHT22;27364;49.026;8.712;2023-02-04T00:27:36;7.60;99.90
41678;DHT22;27364;49.026;8.712;2023-02-04T00:30:06;7.60;99.90
41678;DHT22;27364;49.026;8.712;2023-02-04T00:32:31;7.60;99.90
41678;DHT22;27364;49.026;8.712;2023-02-04T00:34:57;7.60;99.90
41678;DHT22;27364;49.026;8.712;2023-02-04T00:37:23;7.60;99.90
41678;DHT22;27364;49.026;8.712;2023-02-04T00:39:48;7.60;99.90
41678;DHT22;27364;49.026;8.712;2023-02-04T00:42:14;7.60;99.90
41678;DHT22;27364;49.026;8.712;2023-02-04T00:44:40;7.50;99.90
41678;DHT22;27364;49.026;8.712;2023-02-04T00:47:05;7.50;99.90
41678;DHT22;27364;49.026;8.712;2023-02-04T00:49:34;7.50;99.90
41678;DHT22;27364;49.026;8.712;2023-02-04T00:52:00;7.50;99.90
41678;DHT22;27364;49.026;8.712;2023-02-04T00:54:26;7.70;99.90
41678;DHT22;27364;49.026;8.712;2023-02-04T00:56:51;7.70;99.90
41678;DHT22;27364;49.026;8.712;2023-02-04T00:59:17;7.70;99.90
41678;DHT22;27364;49.026;8.712;2023-02-04T01:01:43;7.60;99.90
41678;DHT22;27364;49.026;8.712;2023-02-04T01:04:08;7.60;99.90
41678;DHT22;27364;49.026;8.712;2023-02-04T01:06:34;7.50;99.90
41678;DHT22;27364;49.026;8.712;2023-02-04T01:08:59;7.50;99.90
41678;DHT22;27364;49.026;8.712;2023-02-04T01:11:26;7.50;99.90
41678;DHT22;27364;49.026;8.712;2023-02-04T01:13:52;7.40;99.90
41678;DHT22;27364;49.026;8.712;2023-02-04T01:16:17;7.50;99.90
41678;DHT22;27364;49.026;8.712;2023-02-04T01:18:43;7.50;99.90
41678;DHT22;27364;49.026;8.712;2023-02-04T01:21:09;7.50;99.90
41678;DHT22;27364;49.026;8.712;2023-02-04T01:23:35;7.50;99.90
41678;DHT22;27364;49.026;8.712;2023-02-04T01:26:00;7.50;99.90
41678;DHT22;27364;49.026;8.712;2023-02-04T01:28:26;7.40;99.90
41678;DHT22;27364;49.026;8.712;2023-02-04T01:30:51;7.40;99.90
41678;DHT22;27364;49.026;8.712;2023-02-04T01:33:17;7.40;99.90
41678;DHT22;27364;49.026;8.712;2023-02-04T01:35:42;7.40;99.90
41678;DHT22;27364;49.026;8.712;2023-02-04T01:38:08;7.40;99.90
41678;DHT22;27364;49.026;8.712;2023-02-04T01:40:34;7.40;99.90
41678;DHT22;27364;49.026;8.712;2023-02-04T01:42:59;7.30;99.90
41678;DHT22;27364;49.026;8.712;2023-02-04T01:45:25;7.40;99.90
41678;DHT22;27364;49.026;8.712;2023-02-04T01:47:51;7.40;99.90
41678;DHT22;27364;49.026;8.712;2023-02-04T01:50:17;7.40;99.90
41678;DHT22;27364;49.026;8.712;2023-02-04T01:52:43;7.40;99.90
41678;DHT22;27364;49.026;8.712;2023-02-04T01:55:14;7.40;99.90
41678;DHT22;27364;49.026;8.712;2023-02-04T01:57:40;7.40;99.90
41678;DHT22;27364;49.026;8.712;2023-02-04T02:00:12;7.40;99.90
41678;DHT22;27364;49.026;8.712;2023-02-04T02:02:47;7.40;99.90
41678;DHT22;27364;49.026;8.712;2023-02-04T02:05:18;7.40;99.90
41678;DHT22;27364;49.026;8.712;2023-02-04T02:07:46;7.40;99.90
41678;DHT22;27364;49.026;8.712;2023-02-04T02:10:12;7.40;99.90
41678;DHT22;27364;49.026;8.712;2023-02-04T02:12:39;7.40;99.90
41678;DHT22;27364;49.026;8.712;2023-02-04T02:15:04;7.40;99.90
41678;DHT22;27364;49.026;8.712;2023-02-04T02:17:30;7.30;99.90
41678;DHT22;27364;49.026;8.712;2023-02-04T02:19:57;7.40;99.90
41678;DHT22;27364;49.026;8.712;2023-02-04T02:22:34;7.40;99.90
41678;DHT22;27364;49.026;8.712;2023-02-04T02:25:08;7.30;99.90
41678;DHT22;27364;49.026;8.712;2023-02-04T02:27:34;7.30;99.90
41678;DHT22;27364;49.026;8.712;2023-02-04T02:29:59;7.30;99.90
41678;DHT22;27364;49.026;8.712;2023-02-04T02:32:25;7.30;99.90
41678;DHT22;27364;49.026;8.712;2023-02-04T02:34:50;7.20;99.90
41678;DHT22;27364;49.026;8.712;2023-02-04T02:37:16;7.20;99.90
41678;DHT22;27364;49.026;8.712;2023-02-04T02:39:43;7.20;99.90
41678;DHT22;27364;49.026;8.712;2023-02-04T02:42:13;7.10;99.90
41678;DHT22;27364;49.026;8.712;2023-02-04T02:44:39;7.20;99.90
41678;DHT22;27364;49.026;8.712;2023-02-04T02:47:05;7.20;99.90
41678;DHT22;27364;49.026;8.712;2023-02-04T02:49:31;7.10;99.90
41678;DHT22;27364;49.026;8.712;2023-02-04T02:51:58;7.10;99.90
41678;DHT22;27364;49.026;8.712;2023-02-04T02:54:27;7.10;99.90
41678;DHT22;27364;49.026;8.712;2023-02-04T02:56:53;7.10;99.90
41678;DHT22;27364;49.026;8.712;2023-02-04T02:59:19;7.10;99.90
41678;DHT22;27364;49.026;8.712;2023-02-04T03:01:48;7.10;99.90
41678;DHT22;27364;49.026;8.712;2023-02-04T03:04:16;7.00;99.90
41678;DHT22;27364;49.026;8.712;2023-02-04T03:06:43;7.00;99.90
41678;DHT22;27364;49.026;8.712;2023-02-04T03:09:08;7.00;99.90
41678;DHT22;27364;49.026;8.712;2023-02-04T03:11:35;7.00;99.90
41678;DHT22;27364;49.026;8.712;2023-02-04T03:14:01;7.00;99.90
41678;DHT22;27364;49.026;8.712;2023-02-04T03:16:28;7.00;99.90
41678;DHT22;27364;49.026;8.712;2023-02-04T03:18:54;7.00;99.90
41678;DHT22;27364;49.026;8.712;2023-02-04T03:21:20;6.90;99.90
41678;DHT22;27364;49.026;8.712;2023-02-04T03:23:45;7.00;99.90
41678;DHT22;27364;49.026;8.712;2023-02-04T03:26:11;7.00;99.90
41678;DHT22;27364;49.026;8.712;2023-02-04T03:28:41;6.90;99.90
41678;DHT22;27364;49.026;8.712;2023-02-04T03:31:07;7.00;99.90
41678;DHT22;27364;49.026;8.712;2023-02-04T03:33:32;6.90;99.90
41678;DHT22;27364;49.026;8.712;2023-02-04T03:36:00;6.90;99.90
41678;DHT22;27364;49.026;8.712;2023-02-04T03:38:26;6.90;99.90
41678;DHT22;27364;49.026;8.712;2023-02-04T03:40:52;6.90;99.90
41678;DHT22;27364;49.026;8.712;2023-02-04T03:43:17;6.90;99.90
41678;DHT22;27364;49.026;8.712;2023-02-04T03:45:43;6.90;99.90
41678;DHT22;27364;49.026;8.712;2023-02-04T03:48:09;6.90;99.90
41678;DHT22;27364;49.026;8.712;2023-02-04T03:50:35;6.80;99.90
41678;DHT22;27364;49.026;8.712;2023-02-04T03:53:00;6.80;99.90
41678;DHT22;27364;49.026;8.712;2023-02-04T03:55:26;6.80;99.90
41678;DHT22;27364;49.026;8.712;2023-02-04T03:57:52;6.80;99.90
41678;DHT22;27364;49.026;8.712;2023-02-04T04:00:18;6.80;99.90
41678;DHT22;27364;49.026;8.712;2023-02-04T04:02:44;6.80;99.90
41678;DHT22;27364;49.026;8.712;2023-02-04T04:05:10;6.80;99.90
41678;DHT22;27364;49.026;8.712;2023-02-04T04:07:36;6.80;99.90
41678;DHT22;27364;49.026;8.712;2023-02-04T04:10:02;6.70;99.90
41678;DHT22;27364;49.026;8.712;2023-02-04T04:12:28;6.70;99.90
41678;DHT22;27364;49.026;8.712;2023-02-04T04:14:53;6.70;99.90
41678;DHT22;27364;49.026;8.712;2023-02-04T04:17:19;6.70;99.90
41678;DHT22;27364;49.026;8.712;2023-02-04T04:19:45;6.70;99.90
41678;DHT22;27364;49.026;8.712;2023-02-04T04:22:10;6.70;99.90
41678;DHT22;27364;49.026;8.712;2023-02-04T04:24:36;6.70;99.90
41678;DHT22;27364;49.026;8.712;2023-02-04T04:27:02;6.70;99.90
41678;DHT22;27364;49.026;8.712;2023-02-04T04:29:27;6.60;99.90
41678;DHT22;27364;49.026;8.712;2023-02-04T04:31:53;6.60;99.90
41678;DHT22;27364;49.026;8.712;2023-02-04T04:34:18;6.60;99.90
41678;DHT22;27364;49.026;8.712;2023-02-04T04:36:44;6.60;99.90
41678;DHT22;27364;49.026;8.712;2023-02-04T04:39:09;6.60;99.90
41678;DHT22;27364;49.026;8.712;2023-02-04T04:41:35;6.60;99.90
41678;DHT22;27364;49.026;8.712;2023-02-04T04:44:01;6.60;99.90
41678;DHT22;27364;49.026;8.712;2023-02-04T04:46:26;6.60;99.90
41678;DHT22;27364;49.026;8.712;2023-02-04T04:48:52;6.60;99.90
41678;DHT22;27364;49.026;8.712;2023-02-04T04:51:17;6.60;99.90
41678;DHT22;27364;49.026;8.712;2023-02-04T04:53:43;6.60;99.90
41678;DHT22;27364;49.026;8.712;2023-02-04T04:56:08;6.60;99.90
41678;DHT22;27364;49.026;8.712;2023-02-04T04:58:34;6.60;99.90
41678;DHT22;27364;49.026;8.712;2023-02-04T05:00:59;6.60;99.90
41678;DHT22;27364;49.026;8.712;2023-02-04T05:03:25;6.50;99.90
41678;DHT22;27364;49.026;8.712;2023-02-04T05:05:51;6.60;99.90
41678;DHT22;27364;49.026;8.712;2023-02-04T05:08:16;6.50;99.90
41678;DHT22;27364;49.026;8.712;2023-02-04T05:10:43;6.50;99.90
41678;DHT22;27364;49.026;8.712;2023-02-04T05:13:09;6.50;99.90
41678;DHT22;27364;49.026;8.712;2023-02-04T05:15:35;6.50;99.90
41678;DHT22;27364;49.026;8.712;2023-02-04T05:18:00;6.50;99.90
41678;DHT22;27364;49.026;8.712;2023-02-04T05:20:26;6.50;99.90
41678;DHT22;27364;49.026;8.712;2023-02-04T05:22:51;6.50;99.90
41678;DHT22;27364;49.026;8.712;2023-02-04T05:25:17;6.50;99.90
41678;DHT22;27364;49.026;8.712;2023-02-04T05:27:44;6.50;99.90
41678;DHT22;27364;49.026;8.712;2023-02-04T05:30:11;6.50;99.90
41678;DHT22;27364;49.026;8.712;2023-02-04T05:32:37;6.50;99.90
41678;DHT22;27364;49.026;8.712;2023-02-04T05:35:03;6.50;99.90
41678;DHT22;27364;49.026;8.712;2023-02-04T05:37:28;6.50;99.90
41678;DHT22;27364;49.026;8.712;2023-02-04T05:39:54;6.50;99.90
41678;DHT22;27364;49.026;8.712;2023-02-04T05:42:19;6.50;99.90
41678;DHT22;27364;49.026;8.712;2023-02-04T05:44:45;6.50;99.90
41678;DHT22;27364;49.026;8.712;2023-02-04T05:47:10;6.40;99.90
41678;DHT22;27364;49.026;8.712;2023-02-04T05:49:36;6.40;99.90
41678;DHT22;27364;49.026;8.712;2023-02-04T05:52:01;6.40;99.90
41678;DHT22;27364;49.026;8.712;2023-02-04T05:54:27;6.40;99.90
41678;DHT22;27364;49.026;8.712;2023-02-04T05:56:53;6.40;99.90
41678;DHT22;27364;49.026;8.712;2023-02-04T05:59:18;6.40;99.90
41678;DHT22;27364;49.026;8.712;2023-02-04T06:01:44;6.40;99.90
41678;DHT22;27364;49.026;8.712;2023-02-04T06:04:09;6.40;99.90
41678;DHT22;27364;49.026;8.712;2023-02-04T06:06:35;6.40;99.90
41678;DHT22;27364;49.026;8.712;2023-02-04T06:09:01;6.40;99.90
41678;DHT22;27364;49.026;8.712;2023-02-04T06:11:26;6.30;99.90
41678;DHT22;27364;49.026;8.712;2023-02-04T06:13:52;6.30;99.90
41678;DHT22;27364;49.026;8.712;2023-02-04T06:16:17;6.30;99.90
41678;DHT22;27364;49.026;8.712;2023-02-04T06:18:43;6.40;99.90
41678;DHT22;27364;49.026;8.712;2023-02-04T06:21:08;6.30;99.90
41678;DHT22;27364;49.026;8.712;2023-02-04T06:23:34;6.30;99.90
41678;DHT22;27364;49.026;8.712;2023-02-04T06:26:01;6.30;99.90
41678;DHT22;27364;49.026;8.712;2023-02-04T06:28:26;6.30;99.90
41678;DHT22;27364;49.026;8.712;2023-02-04T06:30:52;6.30;99.90
41678;DHT22;27364;49.026;8.712;2023-02-04T06:33:18;6.30;99.90
41678;DHT22;27364;49.026;8.712;2023-02-04T06:35:43;6.30;99.90
41678;DHT22;27364;49.026;8.712;2023-02-04T06:38:09;6.30;99.90
41678;DHT22;27364;49.026;8.712;2023-02-04T06:40:34;6.30;99.90
41678;DHT22;27364;49.026;8.712;2023-02-04T06:43:00;6.30;99.90
41678;DHT22;27364;49.026;8.712;2023-02-04T06:45:25;6.30;99.90
41678;DHT22;27364;49.026;8.712;2023-02-04T06:47:51;6.30;99.90
41678;DHT22;27364;49.026;8.712;2023-02-04T06:50:16;6.20;99.90
41678;DHT22;27364;49.026;8.712;2023-02-04T06:52:46;6.30;99.90
41678;DHT22;27364;49.026;8.712;2023-02-04T06:55:13;6.20;99.90
41678;DHT22;27364;49.026;8.712;2023-02-04T06:57:38;6.20;99.90
41678;DHT22;27364;49.026;8.712;2023-02-04T07:00:06;6.10;99.90
41678;DHT22;27364;49.026;8.712;2023-02-04T07:02:32;6.20;99.90
41678;DHT22;27364;49.026;8.712;2023-02-04T07:04:57;6.20;99.90
41678;DHT22;27364;49.026;8.712;2023-02-04T07:07:25;6.20;99.90
41678;DHT22;27364;49.026;8.712;2023-02-04T07:09:50;6.20;99.90
41678;DHT22;27364;49.026;8.712;2023-02-04T07:12:16;6.20;99.90
41678;DHT22;27364;49.026;8.712;2023-02-04T07:14:41;6.10;99.90
41678;DHT22;27364;49.026;8.712;2023-02-04T07:17:07;6.10;99.90
41678;DHT22;27364;49.026;8.712;2023-02-04T07:19:32;6.10;99.90
41678;DHT22;27364;49.026;8.712;2023-02-04T07:21:59;6.10;99.90
41678;DHT22;27364;49.026;8.712;2023-02-04T07:24:25;6.10;99.90
41678;DHT22;27364;49.026;8.712;2023-02-04T07:26:50;6.10;99.90
41678;DHT22;27364;49.026;8.712;2023-02-04T07:29:16;6.10;99.90
41678;DHT22;27364;49.026;8.712;2023-02-04T07:31:43;6.10;99.90
41678;DHT22;27364;49.026;8.712;2023-02-04T07:34:12;6.10;99.90
41678;DHT22;27364;49.026;8.712;2023-02-04T07:36:38;6.10;99.90
41678;DHT22;27364;49.026;8.712;2023-02-04T07:39:03;6.10;99.90
41678;DHT22;27364;49.026;8.712;2023-02-04T07:41:28;6.10;99.90
41678;DHT22;27364;49.026;8.712;2023-02-04T07:43:54;6.10;99.90
41678;DHT22;27364;49.026;8.712;2023-02-04T07:46:19;6.10;99.90
41678;DHT22;27364;49.026;8.712;2023-02-04T07:48:45;6.10;99.90
41678;DHT22;27364;49.026;8.712;2023-02-04T07:51:10;6.10;99.90
41678;DHT22;27364;49.026;8.712;2023-02-04T07:53:36;6.10;99.90
41678;DHT22;27364;49.026;8.712;2023-02-04T07:56:02;6.10;99.90
41678;DHT22;27364;49.026;8.712;2023-02-04T07:58:27;6.10;99.90
41678;DHT22;27364;49.026;8.712;2023-02-04T08:00:52;6.10;99.90
41678;DHT22;27364;49.026;8.712;2023-02-04T08:03:18;6.10;99.90
41678;DHT22;27364;49.026;8.712;2023-02-04T08:05:44;6.10;99.90
41678;DHT22;27364;49.026;8.712;2023-02-04T08:08:09;6.10;99.90
41678;DHT22;27364;49.026;8.712;2023-02-04T08:10:35;6.10;99.90
41678;DHT22;27364;49.026;8.712;2023-02-04T08:13:00;6.10;99.90
41678;DHT22;27364;49.026;8.712;2023-02-04T08:15:26;6.20;99.90
41678;DHT22;27364;49.026;8.712;2023-02-04T08:17:51;6.20;99.90
41678;DHT22;27364;49.026;8.712;2023-02-04T08:20:17;6.20;99.90
41678;DHT22;27364;49.026;8.712;2023-02-04T08:22:43;6.20;99.90
41678;DHT22;27364;49.026;8.712;2023-02-04T08:25:09;6.30;99.90
41678;DHT22;27364;49.026;8.712;2023-02-04T08:27:36;6.30;99.90
41678;DHT22;27364;49.026;8.712;2023-02-04T08:30:02;6.30;99.90
41678;DHT22;27364;49.026;8.712;2023-02-04T08:32:27;6.30;99.90
41678;DHT22;27364;49.026;8.712;2023-02-04T08:34:54;6.30;99.90
41678;DHT22;27364;49.026;8.712;2023-02-04T08:37:19;6.30;99.90
41678;DHT22;27364;49.026;8.712;2023-02-04T08:39:45;6.30;99.90
41678;DHT22;27364;49.026;8.712;2023-02-04T08:42:12;6.40;99.90
41678;DHT22;27364;49.026;8.712;2023-02-04T08:44:37;6.40;99.90
41678;DHT22;27364;49.026;8.712;2023-02-04T08:47:03;6.40;99.90
41678;DHT22;27364;49.026;8.712;2023-02-04T08:49:28;6.50;99.90
41678;DHT22;27364;49.026;8.712;2023-02-04T08:51:54;6.60;99.90
41678;DHT22;27364;49.026;8.712;2023-02-04T08:54:19;6.50;99.90
41678;DHT22;27364;49.026;8.712;2023-02-04T08:56:45;6.60;99.90
41678;DHT22;27364;49.026;8.712;2023-02-04T08:59:10;6.70;99.90
41678;DHT22;27364;49.026;8.712;2023-02-04T09:01:36;6.80;99.90
41678;DHT22;27364;49.026;8.712;2023-02-04T09:04:02;6.80;99.90
41678;DHT22;27364;49.026;8.712;2023-02-04T09:06:27;6.90;99.90
41678;DHT22;27364;49.026;8.712;2023-02-04T09:08:53;6.90;99.90
41678;DHT22;27364;49.026;8.712;2023-02-04T09:11:18;6.90;99.90
41678;DHT22;27364;49.026;8.712;2023-02-04T09:13:44;6.90;99.90
41678;DHT22;27364;49.026;8.712;2023-02-04T09:16:09;7.00;99.90
41678;DHT22;27364;49.026;8.712;2023-02-04T09:18:35;7.00;99.90
41678;DHT22;27364;49.026;8.712;2023-02-04T09:21:01;7.00;99.90
41678;DHT22;27364;49.026;8.712;2023-02-04T09:23:26;7.10;99.90
41678;DHT22;27364;49.026;8.712;2023-02-04T09:25:52;7.10;99.90
41678;DHT22;27364;49.026;8.712;2023-02-04T09:28:18;7.10;99.90
41678;DHT22;27364;49.026;8.712;2023-02-04T09:30:45;7.10;99.90
41678;DHT22;27364;49.026;8.712;2023-02-04T09:33:12;7.20;99.90
41678;DHT22;27364;49.026;8.712;2023-02-04T09:35:38;7.20;99.90
41678;DHT22;27364;49.026;8.712;2023-02-04T09:38:04;7.20;99.90
41678;DHT22;27364;49.026;8.712;2023-02-04T09:40:32;7.30;99.90
41678;DHT22;27364;49.026;8.712;2023-02-04T09:43:03;7.30;99.90
41678;DHT22;27364;49.026;8.712;2023-02-04T09:45:32;7.30;99.90
41678;DHT22;27364;49.026;8.712;2023-02-04T09:48:00;7.30;99.90
41678;DHT22;27364;49.026;8.712;2023-02-04T09:50:27;7.30;99.90
41678;DHT22;27364;49.026;8.712;2023-02-04T09:52:58;7.30;99.90
41678;DHT22;27364;49.026;8.712;2023-02-04T09:55:31;7.20;99.90
41678;DHT22;27364;49.026;8.712;2023-02-04T09:57:57;7.30;99.90
41678;DHT22;27364;49.026;8.712;2023-02-04T10:00:24;7.30;99.90
41678;DHT22;27364;49.026;8.712;2023-02-04T10:02:50;7.30;99.90
41678;DHT22;27364;49.026;8.712;2023-02-04T10:05:19;7.30;99.90
41678;DHT22;27364;49.026;8.712;2023-02-04T10:07:45;7.30;99.90
41678;DHT22;27364;49.026;8.712;2023-02-04T10:10:20;7.30;99.90
41678;DHT22;27364;49.026;8.712;2023-02-04T10:12:48;7.30;99.90
41678;DHT22;27364;49.026;8.712;2023-02-04T10:15:16;7.30;99.90
41678;DHT22;27364;49.026;8.712;2023-02-04T10:17:45;7.20;99.90
41678;DHT22;27364;49.026;8.712;2023-02-04T10:20:13;7.20;99.90
41678;DHT22;27364;49.026;8.712;2023-02-04T10:22:39;7.20;99.90
41678;DHT22;27364;49.026;8.712;2023-02-04T10:25:15;7.20;99.90
41678;DHT22;27364;49.026;8.712;2023-02-04T10:27:48;7.20;99.90
41678;DHT22;27364;49.026;8.712;2023-02-04T10:32:51;7.20;99.90
41678;DHT22;27364;49.026;8.712;2023-02-04T10:35:19;7.20;99.90
41678;DHT22;27364;49.026;8.712;2023-02-04T10:37:45;7.30;99.90
41678;DHT22;27364;49.026;8.712;2023-02-04T10:40:30;7.30;99.90
41678;DHT22;27364;49.026;8.712;2023-02-04T10:42:56;7.20;99.90
41678;DHT22;27364;49.026;8.712;2023-02-04T10:45:27;7.20;99.90
41678;DHT22;27364;49.026;8.712;2023-02-04T10:47:54;7.30;99.90
41678;DHT22;27364;49.026;8.712;2023-02-04T10:50:22;7.30;99.90
41678;DHT22;27364;49.026;8.712;2023-02-04T10:52:53;7.30;99.90
41678;DHT22;27364;49.026;8.712;2023-02-04T10:55:40;7.30;99.90
41678;DHT22;27364;49.026;8.712;2023-02-04T10:58:09;7.30;99.90
41678;DHT22;27364;49.026;8.712;2023-02-04T11:00:36;7.30;99.90
41678;DHT22;27364;49.026;8.712;2023-02-04T11:03:25;7.40;99.90
41678;DHT22;27364;49.026;8.712;2023-02-04T11:05:51;7.40;99.90
41678;DHT22;27364;49.026;8.712;2023-02-04T11:10:57;7.40;99.90
41678;DHT22;27364;49.026;8.712;2023-02-04T11:13:25;7.30;99.90
41678;DHT22;27364;49.026;8.712;2023-02-04T11:16:12;7.30;99.90
41678;DHT22;27364;49.026;8.712;2023-02-04T11:19:04;7.30;99.90
41678;DHT22;27364;49.026;8.712;2023-02-04T11:26:37;7.20;99.90
41678;DHT22;27364;49.026;8.712;2023-02-04T11:39:46;7.10;99.90
41678;DHT22;27364;49.026;8.712;2023-02-04T11:42:29;7.20;99.90
41678;DHT22;27364;49.026;8.712;2023-02-04T11:45:01;7.10;99.90
41678;DHT22;27364;49.026;8.712;2023-02-04T11:47:34;7.10;99.90
41678;DHT22;27364;49.026;8.712;2023-02-04T11:50:03;7.10;99.90
41678;DHT22;27364;49.026;8.712;2023-02-04T11:52:29;7.10;99.90
41678;DHT22;27364;49.026;8.712;2023-02-04T11:54:57;7.10;99.90
41678;DHT22;27364;49.026;8.712;2023-02-04T11:57:23;7.30;99.90
41678;DHT22;27364;49.026;8.712;2023-02-04T11:59:49;7.60;99.90
41678;DHT22;27364;49.026;8.712;2023-02-04T12:02:21;8.10;99.90
41678;DHT22;27364;49.026;8.712;2023-02-04T12:04:55;8.60;99.90
41678;DHT22;27364;49.026;8.712;2023-02-04T12:07:24;8.90;99.90
41678;DHT22;27364;49.026;8.712;2023-02-04T12:09:50;8.80;99.90
41678;DHT22;27364;49.026;8.712;2023-02-04T12:12:29;9.00;99.90
41678;DHT22;27364;49.026;8.712;2023-02-04T12:15:08;8.90;99.90
41678;DHT22;27364;49.026;8.712;2023-02-04T12:17:37;8.90;99.90
41678;DHT22;27364;49.026;8.712;2023-02-04T12:20:03;8.80;99.90
41678;DHT22;27364;49.026;8.712;2023-02-04T12:22:29;8.70;99.90
41678;DHT22;27364;49.026;8.712;2023-02-04T12:24:54;8.60;99.90
41678;DHT22;27364;49.026;8.712;2023-02-04T12:27:20;8.50;99.90
41678;DHT22;27364;49.026;8.712;2023-02-04T12:29:46;8.40;99.90
41678;DHT22;27364;49.026;8.712;2023-02-04T12:32:12;8.30;99.90
41678;DHT22;27364;49.026;8.712;2023-02-04T12:34:37;8.20;99.90
41678;DHT22;27364;49.026;8.712;2023-02-04T12:37:05;8.20;99.90
41678;DHT22;27364;49.026;8.712;2023-02-04T12:39:31;8.10;99.90
41678;DHT22;27364;49.026;8.712;2023-02-04T12:41:57;8.10;99.90
41678;DHT22;27364;49.026;8.712;2023-02-04T12:44:22;8.00;99.90
41678;DHT22;27364;49.026;8.712;2023-02-04T12:46:48;8.10;99.90
41678;DHT22;27364;49.026;8.712;2023-02-04T12:49:13;8.20;99.90
41678;DHT22;27364;49.026;8.712;2023-02-04T12:51:39;8.40;99.90
41678;DHT22;27364;49.026;8.712;2023-02-04T12:54:05;8.60;99.90
41678;DHT22;27364;49.026;8.712;2023-02-04T12:56:30;9.00;99.90
41678;DHT22;27364;49.026;8.712;2023-02-04T12:58:56;9.30;99.90
41678;DHT22;27364;49.026;8.712;2023-02-04T13:01:21;9.50;99.90
41678;DHT22;27364;49.026;8.712;2023-02-04T13:03:47;9.80;99.90
41678;DHT22;27364;49.026;8.712;2023-02-04T13:06:12;10.00;99.90
41678;DHT22;27364;49.026;8.712;2023-02-04T13:08:38;10.00;99.90
41678;DHT22;27364;49.026;8.712;2023-02-04T13:11:03;9.90;99.90
41678;DHT22;27364;49.026;8.712;2023-02-04T13:13:29;9.60;99.90
41678;DHT22;27364;49.026;8.712;2023-02-04T13:15:54;9.40;99.90
41678;DHT22;27364;49.026;8.712;2023-02-04T13:18:20;9.30;99.90
41678;DHT22;27364;49.026;8.712;2023-02-04T13:20:45;9.10;99.90
41678;DHT22;27364;49.026;8.712;2023-02-04T13:23:11;9.00;99.90
41678;DHT22;27364;49.026;8.712;2023-02-04T13:25:37;9.00;99.90
41678;DHT22;27364;49.026;8.712;2023-02-04T13:28:02;8.90;99.90
41678;DHT22;27364;49.026;8.712;2023-02-04T13:30:28;8.80;99.90
41678;DHT22;27364;49.026;8.712;2023-02-04T13:32:53;8.70;99.90
41678;DHT22;27364;49.026;8.712;2023-02-04T13:35:19;8.70;99.90
41678;DHT22;27364;49.026;8.712;2023-02-04T13:37:45;8.70;99.90
41678;DHT22;27364;49.026;8.712;2023-02-04T13:40:11;8.70;99.90
41678;DHT22;27364;49.026;8.712;2023-02-04T13:42:37;8.60;99.90
41678;DHT22;27364;49.026;8.712;2023-02-04T13:45:03;8.70;99.90
41678;DHT22;27364;49.026;8.712;2023-02-04T13:47:29;8.80;99.90
41678;DHT22;27364;49.026;8.712;2023-02-04T13:49:55;9.10;99.90
41678;DHT22;27364;49.026;8.712;2023-02-04T13:52:20;9.40;99.90
41678;DHT22;27364;49.026;8.712;2023-02-04T13:54:46;9.70;99.90
41678;DHT22;27364;49.026;8.712;2023-02-04T13:57:11;9.90;99.90
41678;DHT22;27364;49.026;8.712;2023-02-04T13:59:37;10.00;99.90
41678;DHT22;27364;49.026;8.712;2023-02-04T14:02:02;10.00;99.90
41678;DHT22;27364;49.026;8.712;2023-02-04T14:04:28;10.20;99.90
41678;DHT22;27364;49.026;8.712;2023-02-04T14:06:54;10.30;99.90
41678;DHT22;27364;49.026;8.712;2023-02-04T14:09:21;10.40;99.90
41678;DHT22;27364;49.026;8.712;2023-02-04T14:11:46;10.20;99.90
41678;DHT22;27364;49.026;8.712;2023-02-04T14:14:12;10.10;99.90
41678;DHT22;27364;49.026;8.712;2023-02-04T14:16:37;10.00;99.90
41678;DHT22;27364;49.026;8.712;2023-02-04T14:19:03;9.90;99.90
41678;DHT22;27364;49.026;8.712;2023-02-04T14:21:29;9.90;99.90
41678;DHT22;27364;49.026;8.712;2023-02-04T14:23:54;10.10;99.90
41678;DHT22;27364;49.026;8.712;2023-02-04T14:26:20;10.10;99.90
41678;DHT22;27364;49.026;8.712;2023-02-04T14:28:45;10.30;99.90
41678;DHT22;27364;49.026;8.712;2023-02-04T14:31:11;10.40;99.90
41678;DHT22;27364;49.026;8.712;2023-02-04T14:33:36;10.60;99.90
41678;DHT22;27364;49.026;8.712;2023-02-04T14:36:02;10.70;99.90
41678;DHT22;27364;49.026;8.712;2023-02-04T14:38:28;10.80;99.90
41678;DHT22;27364;49.026;8.712;2023-02-04T14:40:56;10.80;99.90
41678;DHT22;27364;49.026;8.712;2023-02-04T14:43:21;10.90;99.90
41678;DHT22;27364;49.026;8.712;2023-02-04T14:45:48;10.90;99.90
41678;DHT22;27364;49.026;8.712;2023-02-04T14:48:13;10.90;99.90
41678;DHT22;27364;49.026;8.712;2023-02-04T14:50:39;10.90;99.90
41678;DHT22;27364;49.026;8.712;2023-02-04T14:53:04;10.90;99.90
41678;DHT22;27364;49.026;8.712;2023-02-04T14:55:30;11.00;99.90
41678;DHT22;27364;49.026;8.712;2023-02-04T14:57:55;11.10;99.90
41678;DHT22;27364;49.026;8.712;2023-02-04T15:00:21;11.00;99.90
41678;DHT22;27364;49.026;8.712;2023-02-04T15:02:47;10.90;99.90
41678;DHT22;27364;49.026;8.712;2023-02-04T15:05:13;10.70;99.90
41678;DHT22;27364;49.026;8.712;2023-02-04T15:07:39;10.70;99.90
41678;DHT22;27364;49.026;8.712;2023-02-04T15:10:05;10.60;99.90
41678;DHT22;27364;49.026;8.712;2023-02-04T15:12:31;10.40;99.90
41678;DHT22;27364;49.026;8.712;2023-02-04T15:14:56;10.20;99.90
41678;DHT22;27364;49.026;8.712;2023-02-04T15:17:22;9.90;99.90
41678;DHT22;27364;49.026;8.712;2023-02-04T15:19:47;9.70;99.90
41678;DHT22;27364;49.026;8.712;2023-02-04T15:22:13;9.50;99.90
41678;DHT22;27364;49.026;8.712;2023-02-04T15:24:39;9.30;99.90
41678;DHT22;27364;49.026;8.712;2023-02-04T15:27:05;9.20;99.90
41678;DHT22;27364;49.026;8.712;2023-02-04T15:29:30;9.00;99.90
41678;DHT22;27364;49.026;8.712;2023-02-04T15:31:56;8.90;99.90
41678;DHT22;27364;49.026;8.712;2023-02-04T15:34:21;8.80;99.90
41678;DHT22;27364;49.026;8.712;2023-02-04T15:36:47;8.80;99.90
41678;DHT22;27364;49.026;8.712;2023-02-04T15:39:12;8.70;99.90
41678;DHT22;27364;49.026;8.712;2023-02-04T15:41:38;8.80;99.90
41678;DHT22;27364;49.026;8.712;2023-02-04T15:44:04;8.70;99.90
41678;DHT22;27364;49.026;8.712;2023-02-04T15:46:30;8.60;99.90
41678;DHT22;27364;49.026;8.712;2023-02-04T15:48:58;8.50;99.90
41678;DHT22;27364;49.026;8.712;2023-02-04T15:51:26;8.50;99.90
41678;DHT22;27364;49.026;8.712;2023-02-04T15:53:53;8.50;99.90
41678;DHT22;27364;49.026;8.712;2023-02-04T15:56:18;8.40;99.90
41678;DHT22;27364;49.026;8.712;2023-02-04T15:58:44;8.40;99.90
41678;DHT22;27364;49.026;8.712;2023-02-04T16:01:09;8.20;99.90